Norwegian Jade — C6WK7 — position and weather

sailwx.info

Track history (hours):
 
Tides and Currents Weather Stations Pressure Air Temp Water Temp Dewpoint Dewpoint Depression Visibility Wind Speed Wind Dir Waves Ship Positions

Norwegian Jade

Last reported at 2019-Apr-24 18:00 UTC. Time now 2019-Apr-25 15:47 UTC.
Position N 29°00' W 070°30'.

Length 294 m; draft 8.5 m.

Type: Passenger vessel. MMSI: 308416000.

Wind from 050 at 10 knots

Barometer 1020.1 mb
Air temperature 21.0 ° C
Visibility: greater than 10.8 NM
Dewpoint 14.2 ° C
Water temperature 25.0 ° C

Date/timePositionNaut miles runAvg speedWind from/ knotsBaromVisibWave heightAir tempDewpointWater temp
2019-Apr-24 18:00N 29°00' W 070°30'438 9.3 050 / 101020.110.8 21.014.225.0
2019-Apr-22 19:00N 25°48' W 077°54'84 7.0 020 / 151021.110.8 23.012.626.0
2019-Apr-22 07:00N 26°42' W 079°06'13011.8 050 / 81022.1 5.4 22.013.422.0
2019-Apr-21 20:00N 28°24' W 080°36'56511.3 090 / 131021.110.8 25.012.025.0
2019-Apr-19 18:00N 36°24' W 074°42'18120.3 190 / 261013.1 2.2 20.017.613.0
2019-Apr-19 09:05N 39°21' W 073°55'216.3
2019-Apr-19 08:59N 39°23' W 073°55'816.9
2019-Apr-19 08:30N 39°30' W 073°53'815.5
2019-Apr-19 08:00N 39°38' W 073°51'915.6
2019-Apr-19 07:27N 39°47' W 073°49'715.7
2019-Apr-19 07:00N 39°54' W 073°49'2113.6
2019-Apr-19 05:25N 40°15' W 073°49'11 8.8
2019-Apr-19 04:07N 40°27' W 073°49'1 7.0
2019-Apr-19 04:00N 40°27' W 073°50'510.2
2019-Apr-19 03:30N 40°30' W 073°56'815.6
2019-Apr-19 03:00N 40°36' W 074°02'510.2
2019-Apr-19 02:31N 40°41' W 074°02'1 1.4
2019-Apr-19 02:00N 40°41' W 074°01'0 0.0
2019-Apr-19 01:30N 40°41' W 074°01'0 0.0
2019-Apr-19 01:00N 40°41' W 074°01'0 0.0
2019-Apr-19 00:30N 40°41' W 074°01'0 0.0
2019-Apr-19 00:00N 40°41' W 074°01'0 0.0
2019-Apr-18 23:30N 40°41' W 074°01'0 0.0
2019-Apr-18 23:00N 40°41' W 074°01'0 0.0
2019-Apr-18 22:30N 40°41' W 074°01'0 0.0
2019-Apr-18 22:00N 40°41' W 074°01'0 0.0
2019-Apr-18 21:30N 40°41' W 074°01'0 0.0
2019-Apr-18 21:00N 40°41' W 074°01'0 0.0
2019-Apr-18 20:30N 40°41' W 074°01'0 0.0
2019-Apr-18 20:00N 40°41' W 074°01'51119.8
2019-Apr-18 20:00N 40°36' W 074°00'510.1 130 / 101016.1 2.2 15.0 10.0
2019-Apr-18 19:30N 40°41' W 074°01'0 0.0
2019-Apr-18 19:00N 40°41' W 074°01'0 0.0
2019-Apr-18 18:30N 40°41' W 074°01'0 0.0
2019-Apr-18 18:00N 40°41' W 074°01'0 0.0
2019-Apr-18 17:30N 40°41' W 074°01'0 0.0
2019-Apr-18 17:00N 40°41' W 074°01'0 0.0
2019-Apr-18 16:30N 40°41' W 074°01'0 0.0
2019-Apr-18 16:00N 40°41' W 074°01'0 0.0
2019-Apr-18 15:30N 40°41' W 074°01'0 0.0
2019-Apr-18 15:00N 40°41' W 074°01'0 0.3
2019-Apr-18 14:30N 40°41' W 074°01'2 3.4
2019-Apr-18 14:00N 40°40' W 074°03'714.2
2019-Apr-18 13:30N 40°33' W 074°01'714.5
2019-Apr-18 13:00N 40°29' W 073°54'6 9.8
2019-Apr-18 12:26N 40°25' W 073°48'20 9.6
2019-Apr-18 10:22N 40°06' W 073°45'617.5
2019-Apr-18 10:00N 39°59' W 073°44'1118.4
2019-Apr-18 09:26N 39°49' W 073°43'918.3
2019-Apr-18 08:56N 39°40' W 073°45'1117.3
2019-Apr-18 08:17N 39°29' W 073°48'614.4
2019-Apr-18 07:51N 39°23' W 073°50'2614.7
2019-Apr-18 06:04N 38°57' W 073°57'1817.4
2019-Apr-18 05:02N 38°39' W 074°02'1117.7
2019-Apr-18 04:24N 38°29' W 074°06'1017.8
2019-Apr-18 03:50N 38°19' W 074°08'918.0
2019-Apr-18 03:20N 38°10' W 074°11'1217.9
2019-Apr-18 02:38N 37°58' W 074°15'4720.9
2019-Apr-18 00:24N 37°12' W 074°28'9822.2
2019-Apr-17 20:00N 35°36' W 074°48'60924.4 230 / 201020.110.8 20.0 22.0
2019-Apr-16 19:00N 26°24' W 079°48'113434.0 090 / 171022.110.8 25.023.526.0
2019-Apr-16 18:59N 26°35' W 079°44'1225.6
2019-Apr-16 18:30N 26°23' W 079°49'1224.5
2019-Apr-16 18:01N 26°11' W 079°52'1224.3
2019-Apr-16 17:31N 25°60' W 079°56'1122.9
2019-Apr-16 17:01N 25°49' W 080°01'611.5
2019-Apr-16 16:30N 25°46' W 080°06'3 5.9
2019-Apr-16 15:56N 25°46' W 080°10'0 0.0
2019-Apr-16 15:26N 25°46' W 080°10'0 0.0
2019-Apr-16 14:56N 25°46' W 080°10'0 0.0
2019-Apr-16 14:26N 25°46' W 080°10'0 0.0
2019-Apr-16 13:56N 25°46' W 080°10'0 0.0
2019-Apr-16 13:26N 25°46' W 080°10'0 0.0
2019-Apr-16 12:56N 25°46' W 080°10'0 0.0
2019-Apr-16 12:26N 25°46' W 080°10'0 0.0
2019-Apr-16 11:56N 25°46' W 080°10'0 0.0
2019-Apr-16 11:26N 25°46' W 080°10'0 0.0
2019-Apr-16 10:56N 25°46' W 080°10'0 0.0
2019-Apr-16 10:26N 25°46' W 080°10'0 0.0
2019-Apr-16 09:56N 25°46' W 080°10'0 0.0
2019-Apr-16 09:26N 25°46' W 080°10'0 0.0
2019-Apr-16 08:56N 25°46' W 080°10'0 0.0
2019-Apr-16 08:26N 25°46' W 080°10'0 0.0
2019-Apr-16 07:56N 25°46' W 080°10'1 2.1
2019-Apr-16 07:30N 25°47' W 080°11'2 3.6
2019-Apr-16 07:00N 25°46' W 080°09'611.5
2019-Apr-16 06:30N 25°47' W 080°03'5 9.3
2019-Apr-16 06:00N 25°48' W 079°58'510.3
2019-Apr-16 05:30N 25°50' W 079°52'510.3
2019-Apr-16 05:00N 25°52' W 079°47'510.8
2019-Apr-16 04:30N 25°54' W 079°41'510.5
2019-Apr-16 04:00N 25°59' W 079°38'510.1
2019-Apr-16 03:30N 26°03' W 079°36'510.4
2019-Apr-16 03:00N 26°07' W 079°33'510.3
2019-Apr-16 02:30N 26°12' W 079°32'510.4
2019-Apr-16 02:00N 26°18' W 079°31'510.8
2019-Apr-16 01:30N 26°23' W 079°29'611.3
2019-Apr-16 01:00N 26°28' W 079°29'611.3
2019-Apr-16 00:30N 26°34' W 079°30'611.1
2019-Apr-16 00:00N 26°40' W 079°30'511.0
2019-Apr-15 23:30N 26°45' W 079°31'7 2.0
2019-Apr-15 20:00N 26°48' W 079°24'25 9.2 320 / 111018.110.8 25.020.527.0
2019-Apr-15 17:17N 26°23' W 079°23'310.6
2019-Apr-15 17:00N 26°20' W 079°23'510.6
2019-Apr-15 16:30N 26°15' W 079°23'5 9.3
2019-Apr-15 16:00N 26°11' W 079°20'5 9.4
2019-Apr-15 15:30N 26°12' W 079°15'510.4
2019-Apr-15 15:00N 26°12' W 079°09'124 6.2
2019-Apr-14 19:00N 25°00' W 077°18'   120 / 131018.127.0 29.019.928.0
Track history (hours):
 
Tides and Currents Weather Stations Pressure Air Temp Water Temp Dewpoint Dewpoint Depression Visibility Wind Speed Wind Dir Waves Ship Positions

Norwegian Jade

Last reported at 2019-Apr-24 18:00 UTC. Time now 2019-Apr-25 15:47 UTC.
Position N 29°00' W 070°30'.

Length 294 m; draft 8.5 m.

Type: Passenger vessel. MMSI: 308416000.

Wind from 050 at 10 knots

Barometer 1020.1 mb
Air temperature 21.0 ° C
Visibility: greater than 10.8 NM
Dewpoint 14.2 ° C
Water temperature 25.0 ° C

Date/timePositionNaut miles runAvg speedWind from/ knotsBaromVisibWave heightAir tempDewpointWater temp
2019-Apr-24 18:00N 29°00' W 070°30'438 9.3 050 / 101020.110.8 21.014.225.0
2019-Apr-22 19:00N 25°48' W 077°54'84 7.0 020 / 151021.110.8 23.012.626.0
2019-Apr-22 07:00N 26°42' W 079°06'13011.8 050 / 81022.1 5.4 22.013.422.0
2019-Apr-21 20:00N 28°24' W 080°36'56511.3 090 / 131021.110.8 25.012.025.0
2019-Apr-19 18:00N 36°24' W 074°42'18120.3 190 / 261013.1 2.2 20.017.613.0
2019-Apr-19 09:05N 39°21' W 073°55'216.3
2019-Apr-19 08:59N 39°23' W 073°55'816.9
2019-Apr-19 08:30N 39°30' W 073°53'815.5
2019-Apr-19 08:00N 39°38' W 073°51'915.6
2019-Apr-19 07:27N 39°47' W 073°49'715.7
2019-Apr-19 07:00N 39°54' W 073°49'2113.6
2019-Apr-19 05:25N 40°15' W 073°49'11 8.8
2019-Apr-19 04:07N 40°27' W 073°49'1 7.0
2019-Apr-19 04:00N 40°27' W 073°50'510.2
2019-Apr-19 03:30N 40°30' W 073°56'815.6
2019-Apr-19 03:00N 40°36' W 074°02'510.2
2019-Apr-19 02:31N 40°41' W 074°02'1 1.4
2019-Apr-19 02:00N 40°41' W 074°01'0 0.0
2019-Apr-19 01:30N 40°41' W 074°01'0 0.0
2019-Apr-19 01:00N 40°41' W 074°01'0 0.0
2019-Apr-19 00:30N 40°41' W 074°01'0 0.0
2019-Apr-19 00:00N 40°41' W 074°01'0 0.0
2019-Apr-18 23:30N 40°41' W 074°01'0 0.0
2019-Apr-18 23:00N 40°41' W 074°01'0 0.0
2019-Apr-18 22:30N 40°41' W 074°01'0 0.0
2019-Apr-18 22:00N 40°41' W 074°01'0 0.0
2019-Apr-18 21:30N 40°41' W 074°01'0 0.0
2019-Apr-18 21:00N 40°41' W 074°01'0 0.0
2019-Apr-18 20:30N 40°41' W 074°01'0 0.0
2019-Apr-18 20:00N 40°41' W 074°01'51119.8
2019-Apr-18 20:00N 40°36' W 074°00'510.1 130 / 101016.1 2.2 15.0 10.0
2019-Apr-18 19:30N 40°41' W 074°01'0 0.0
2019-Apr-18 19:00N 40°41' W 074°01'0 0.0
2019-Apr-18 18:30N 40°41' W 074°01'0 0.0
2019-Apr-18 18:00N 40°41' W 074°01'0 0.0
2019-Apr-18 17:30N 40°41' W 074°01'0 0.0
2019-Apr-18 17:00N 40°41' W 074°01'0 0.0
2019-Apr-18 16:30N 40°41' W 074°01'0 0.0
2019-Apr-18 16:00N 40°41' W 074°01'0 0.0
2019-Apr-18 15:30N 40°41' W 074°01'0 0.0
2019-Apr-18 15:00N 40°41' W 074°01'0 0.3
2019-Apr-18 14:30N 40°41' W 074°01'2 3.4
2019-Apr-18 14:00N 40°40' W 074°03'714.2
2019-Apr-18 13:30N 40°33' W 074°01'714.5
2019-Apr-18 13:00N 40°29' W 073°54'6 9.8
2019-Apr-18 12:26N 40°25' W 073°48'20 9.6
2019-Apr-18 10:22N 40°06' W 073°45'617.5
2019-Apr-18 10:00N 39°59' W 073°44'1118.4
2019-Apr-18 09:26N 39°49' W 073°43'918.3
2019-Apr-18 08:56N 39°40' W 073°45'1117.3
2019-Apr-18 08:17N 39°29' W 073°48'614.4
2019-Apr-18 07:51N 39°23' W 073°50'2614.7
2019-Apr-18 06:04N 38°57' W 073°57'1817.4
2019-Apr-18 05:02N 38°39' W 074°02'1117.7
2019-Apr-18 04:24N 38°29' W 074°06'1017.8
2019-Apr-18 03:50N 38°19' W 074°08'918.0
2019-Apr-18 03:20N 38°10' W 074°11'1217.9
2019-Apr-18 02:38N 37°58' W 074°15'4720.9
2019-Apr-18 00:24N 37°12' W 074°28'9822.2
2019-Apr-17 20:00N 35°36' W 074°48'60924.4 230 / 201020.110.8 20.0 22.0
2019-Apr-16 19:00N 26°24' W 079°48'113434.0 090 / 171022.110.8 25.023.526.0
2019-Apr-16 18:59N 26°35' W 079°44'1225.6
2019-Apr-16 18:30N 26°23' W 079°49'1224.5
2019-Apr-16 18:01N 26°11' W 079°52'1224.3
2019-Apr-16 17:31N 25°60' W 079°56'1122.9
2019-Apr-16 17:01N 25°49' W 080°01'611.5
2019-Apr-16 16:30N 25°46' W 080°06'3 5.9
2019-Apr-16 15:56N 25°46' W 080°10'0 0.0
2019-Apr-16 15:26N 25°46' W 080°10'0 0.0
2019-Apr-16 14:56N 25°46' W 080°10'0 0.0
2019-Apr-16 14:26N 25°46' W 080°10'0 0.0
2019-Apr-16 13:56N 25°46' W 080°10'0 0.0
2019-Apr-16 13:26N 25°46' W 080°10'0 0.0
2019-Apr-16 12:56N 25°46' W 080°10'0 0.0
2019-Apr-16 12:26N 25°46' W 080°10'0 0.0
2019-Apr-16 11:56N 25°46' W 080°10'0 0.0
2019-Apr-16 11:26N 25°46' W 080°10'0 0.0
2019-Apr-16 10:56N 25°46' W 080°10'0 0.0
2019-Apr-16 10:26N 25°46' W 080°10'0 0.0
2019-Apr-16 09:56N 25°46' W 080°10'0 0.0
2019-Apr-16 09:26N 25°46' W 080°10'0 0.0
2019-Apr-16 08:56N 25°46' W 080°10'0 0.0
2019-Apr-16 08:26N 25°46' W 080°10'0 0.0
2019-Apr-16 07:56N 25°46' W 080°10'1 2.1
2019-Apr-16 07:30N 25°47' W 080°11'2 3.6
2019-Apr-16 07:00N 25°46' W 080°09'611.5
2019-Apr-16 06:30N 25°47' W 080°03'5 9.3
2019-Apr-16 06:00N 25°48' W 079°58'510.3
2019-Apr-16 05:30N 25°50' W 079°52'510.3
2019-Apr-16 05:00N 25°52' W 079°47'510.8
2019-Apr-16 04:30N 25°54' W 079°41'510.5
2019-Apr-16 04:00N 25°59' W 079°38'510.1
2019-Apr-16 03:30N 26°03' W 079°36'510.4
2019-Apr-16 03:00N 26°07' W 079°33'510.3
2019-Apr-16 02:30N 26°12' W 079°32'510.4
2019-Apr-16 02:00N 26°18' W 079°31'510.8
2019-Apr-16 01:30N 26°23' W 079°29'611.3
2019-Apr-16 01:00N 26°28' W 079°29'611.3
2019-Apr-16 00:30N 26°34' W 079°30'611.1
2019-Apr-16 00:00N 26°40' W 079°30'511.0
2019-Apr-15 23:30N 26°45' W 079°31'7 2.0
2019-Apr-15 20:00N 26°48' W 079°24'25 9.2 320 / 111018.110.8 25.020.527.0
2019-Apr-15 17:17N 26°23' W 079°23'310.6
2019-Apr-15 17:00N 26°20' W 079°23'510.6
2019-Apr-15 16:30N 26°15' W 079°23'5 9.3
2019-Apr-15 16:00N 26°11' W 079°20'5 9.4
2019-Apr-15 15:30N 26°12' W 079°15'510.4
2019-Apr-15 15:00N 26°12' W 079°09'124 6.2
2019-Apr-14 19:00N 25°00' W 077°18'   120 / 131018.127.0 29.019.928.0

Dump ship's entire track history